Wednesday, October 18, 2017, 3:43 AM EDT
Back to Local

KLNS, Lancaster Airport

Location: Lititz, PA, United States Lat: 40.117
Local Time: 3:43 AM EDT ( 7:43 GMT) Lon: -76.3
Time Zone: US/Eastern Elev: 403 ft

Show me the last for .
Show Decoded

2017-10-18 02:53 METAR KLNS 180653Z AUTO 00000KT 10SM CLR 06/04 A3032 RMK AO2 SLP267 T00560044 =
2017-10-18 01:53 METAR KLNS 180553Z AUTO 00000KT 10SM CLR 06/04 A3032 RMK AO2 SLP267 T00560044
                 10106 20056 50001 =
2017-10-18 00:53 METAR KLNS 180453Z AUTO 00000KT 10SM CLR 07/04 A3032 RMK AO2 SLP267 T00720044
                 401560022 =
2017-10-17 23:53 METAR KLNS 180353Z AUTO 00000KT 10SM CLR 08/04 A3032 RMK AO2 SLP268 T00830039 =
2017-10-17 22:53 METAR KLNS 180253Z 00000KT 10SM CLR 07/04 A3031 RMK AO2 SLP265 T00720039 51009 =
2017-10-17 21:53 METAR KLNS 180153Z 00000KT 10SM CLR 08/04 A3030 RMK AO2 SLP264 T00780039 =
2017-10-17 20:53 METAR KLNS 180053Z 00000KT 10SM CLR 09/04 A3029 RMK AO2 SLP260 T00890039 =
2017-10-17 19:53 METAR KLNS 172353Z 00000KT 10SM CLR 10/03 A3028 RMK AO2 SLP257 T01000033 10156
                 20100 53004 =
2017-10-17 18:53 METAR KLNS 172253Z 20004KT 10SM CLR 13/01 A3027 RMK AO2 SLP253 T01280011 =
2017-10-17 17:53 METAR KLNS 172153Z 23006KT 10SM CLR 14/01 A3026 RMK AO2 SLP250 T01390011 =
2017-10-17 16:53 METAR KLNS 172053Z 23008KT 10SM CLR 15/M01 A3027 RMK AO2 SLP252 T01501006 56013
                 =
2017-10-17 15:53 METAR KLNS 171953Z 31006KT 10SM CLR 15/01 A3028 RMK AO2 SLP254 T01500011 =
2017-10-17 14:53 METAR KLNS 171853Z 23006KT 10SM CLR 14/01 A3029 RMK AO2 SLP257 T01440006 =
2017-10-17 13:53 METAR KLNS 171753Z VRB05KT 10SM CLR 14/02 A3031 RMK AO2 SLP265 T01390022 10139
                 20033 58020 =
2017-10-17 12:53 METAR KLNS 171653Z VRB03KT 10SM CLR 13/02 A3034 RMK AO2 SLP275 T01330022 =
2017-10-17 11:53 METAR KLNS 171553Z 00000KT 10SM CLR 12/02 A3036 RMK AO2 SLP282 T01170022 =
2017-10-17 10:53 METAR KLNS 171453Z 33003KT 10SM CLR 11/02 A3037 RMK AO2 SLP286 T01060017 50007 =
2017-10-17 09:53 METAR KLNS 171353Z VRB05KT 10SM CLR 09/02 A3038 RMK AO2 SLP289 T00890022 =
2017-10-17 08:53 METAR KLNS 171253Z 29003KT 10SM CLR 07/03 A3038 RMK AO2 SLP288 T00670033 =
2017-10-17 07:53 METAR KLNS 171153Z 29004KT 10SM CLR 03/02 A3035 RMK AO2 SLP280 T00330017 10067
                 20022 51015 =
2017-10-17 06:53 METAR KLNS 171053Z 25003KT 10SM CLR 03/02 A3034 RMK AO2 SLP275 T00330017 =
2017-10-17 05:53 METAR KLNS 170953Z 00000KT 10SM CLR 03/02 A3033 RMK AO2 SLP271 T00280017 =
2017-10-17 04:53 METAR KLNS 170853Z AUTO 29004KT 10SM CLR 04/02 A3031 RMK AO2 SLP264 T00390017
                 53014 =
2017-10-17 03:53 METAR KLNS 170753Z AUTO 35005KT 10SM CLR 06/01 A3028 RMK AO2 SLP256 T00560011 =

Support USWX by starting your Amazon purchase here.